createdAt,value
2018-04-26T16:54:11.387Z,47.60
2018-04-26T16:56:38.945Z,47.00
2018-04-26T16:59:06.499Z,47.00
2018-04-26T17:01:33.993Z,46.40
2018-04-26T17:04:01.516Z,45.00
2018-04-26T17:06:29.019Z,46.20
2018-04-26T17:08:56.562Z,47.90
2018-04-26T17:11:24.571Z,48.90
2018-04-26T17:13:52.100Z,48.10
2018-04-26T17:16:19.614Z,48.60
2018-04-26T17:18:47.539Z,48.60
2018-04-26T17:21:15.044Z,48.60
2018-04-26T17:23:42.583Z,48.90
2018-04-26T17:26:10.090Z,49.30
2018-04-26T17:28:37.586Z,50.00
2018-04-26T17:31:05.108Z,50.40
2018-04-26T17:33:32.678Z,50.80
2018-04-26T17:36:00.229Z,50.20
2018-04-26T17:38:27.834Z,49.40
2018-04-26T17:40:55.374Z,49.60
2018-04-26T17:43:22.897Z,51.40
2018-04-26T17:45:50.418Z,52.10
2018-04-26T17:48:17.948Z,52.70
2018-04-26T17:50:45.470Z,52.70
2018-04-26T17:53:12.992Z,53.20
2018-04-26T17:55:40.916Z,55.10
2018-04-26T17:58:08.508Z,55.10
2018-04-26T18:00:35.999Z,55.70
2018-04-26T18:03:03.521Z,56.40
2018-04-26T18:05:31.451Z,57.70
2018-04-26T18:07:59.034Z,57.70
2018-04-26T18:10:26.627Z,58.60
2018-04-26T18:12:54.207Z,59.10
2018-04-26T18:15:21.782Z,59.10
2018-04-26T18:17:49.356Z,59.40
2018-04-26T18:20:16.952Z,60.00
2018-04-26T18:22:44.596Z,60.60
2018-04-26T18:25:12.255Z,60.70
2018-04-26T18:27:39.768Z,61.30
2018-04-26T18:30:07.348Z,61.20
2018-04-26T18:32:34.969Z,61.40
2018-04-26T18:35:02.540Z,61.60
2018-04-26T18:37:30.117Z,62.30
2018-04-26T18:39:57.667Z,62.70
2018-04-26T18:42:25.294Z,63.10
2018-04-26T18:44:52.902Z,63.70
2018-04-26T18:47:20.452Z,63.60
2018-04-26T18:49:48.036Z,63.90
2018-04-26T18:52:15.617Z,63.90
2018-04-26T18:54:43.212Z,64.10
2018-04-26T18:57:10.816Z,64.40
2018-04-26T18:59:38.408Z,64.90
2018-04-26T19:02:05.991Z,65.30
2018-04-26T19:04:33.538Z,65.00
2018-04-26T19:07:01.120Z,65.20
2018-04-26T19:09:28.701Z,65.10
2018-04-26T19:11:56.315Z,65.30
2018-04-26T19:14:23.886Z,65.50
2018-04-26T19:16:51.451Z,65.60
2018-04-26T19:19:19.014Z,65.80
2018-04-26T19:21:46.587Z,66.00
2018-04-26T19:24:14.138Z,66.20
2018-04-26T19:26:41.788Z,66.50
2018-04-26T19:29:09.336Z,66.60
2018-04-26T19:31:37.103Z,66.70
2018-04-26T19:34:04.964Z,67.00
2018-04-26T19:36:32.512Z,67.30
2018-04-26T19:39:00.289Z,67.70
2018-04-26T19:41:27.859Z,68.40
2018-04-26T19:43:55.999Z,69.10
2018-04-26T19:46:23.715Z,69.80
2018-04-26T19:48:51.944Z,70.50
2018-04-26T19:51:19.802Z,70.70
2018-04-26T19:53:47.650Z,71.30
2018-04-26T19:56:15.295Z,71.90
2018-04-26T19:58:42.926Z,72.20
2018-04-26T20:01:11.366Z,72.20
2018-04-26T20:03:38.990Z,72.40
2018-04-26T20:06:07.398Z,72.80
2018-04-26T20:08:35.210Z,73.00
2018-04-26T20:11:02.928Z,73.00
2018-04-26T20:13:30.523Z,73.00
2018-04-26T20:15:58.078Z,73.10
2018-04-26T20:18:25.709Z,73.10
2018-04-26T20:20:53.587Z,73.10
2018-04-26T20:23:21.257Z,73.50
2018-04-26T20:25:49.608Z,75.40
2018-04-26T20:28:17.282Z,75.40
2018-04-26T20:30:44.847Z,75.80
2018-04-26T20:33:12.692Z,76.00
2018-04-26T20:35:40.606Z,76.40
2018-04-26T20:38:08.400Z,76.40
2018-04-26T20:40:36.025Z,76.50
2018-04-26T20:43:03.609Z,76.60
2018-04-26T20:45:31.222Z,76.80
2018-04-26T20:47:58.778Z,76.90
2018-04-26T20:50:26.488Z,77.10
2018-04-26T20:52:53.998Z,77.30
2018-04-26T20:55:21.772Z,77.60
2018-04-26T20:57:49.313Z,77.80
2018-04-26T21:00:16.903Z,78.10
2018-04-26T21:02:44.474Z,78.40
2018-04-26T21:05:12.492Z,78.60
2018-04-26T21:07:40.072Z,78.60
2018-04-26T21:10:07.708Z,78.60
2018-04-26T21:12:35.261Z,78.60
2018-04-26T21:15:02.908Z,78.80
2018-04-26T21:17:30.479Z,78.60
2018-04-26T21:19:58.146Z,78.50
2018-04-26T21:22:25.741Z,78.60
2018-04-26T21:24:53.364Z,78.70
2018-04-26T21:27:21.134Z,78.80
2018-04-26T21:29:48.719Z,78.90
2018-04-26T21:32:16.274Z,78.70
2018-04-26T21:34:43.942Z,78.50
2018-04-26T21:37:11.612Z,78.40
2018-04-26T21:39:39.265Z,78.50
2018-04-26T21:42:06.845Z,78.50
2018-04-26T21:44:34.593Z,78.50
2018-04-26T21:47:02.410Z,78.60
2018-04-26T21:49:29.474Z,78.60
2018-04-26T21:52:02.864Z,78.70
2018-04-26T21:54:36.052Z,78.80
2018-04-26T21:57:09.188Z,78.80
2018-04-26T21:59:42.380Z,79.10
2018-04-26T22:02:15.786Z,79.10
2018-04-26T22:04:50.963Z,79.20
2018-04-26T22:07:18.679Z,79.20
2018-04-26T22:09:46.254Z,79.60
2018-04-26T22:12:13.842Z,79.40
2018-04-26T22:14:41.409Z,79.40
2018-04-26T22:17:09.313Z,79.50
2018-04-26T22:19:36.928Z,79.70
2018-04-26T22:22:04.752Z,79.90
2018-04-26T22:24:32.477Z,80.00
2018-04-26T22:27:00.100Z,80.00
2018-04-26T22:29:27.674Z,80.00
2018-04-26T22:31:55.238Z,80.10
2018-04-26T22:34:22.854Z,80.00
2018-04-26T22:36:50.548Z,80.30
2018-04-26T22:39:18.290Z,80.70
2018-04-26T22:41:45.888Z,80.70
2018-04-26T22:44:13.477Z,80.60
2018-04-26T22:46:41.091Z,80.60
2018-04-26T22:49:08.684Z,80.70
2018-04-26T22:51:36.331Z,81.00
2018-04-26T22:54:03.968Z,81.00
2018-04-26T22:56:31.645Z,81.30
2018-04-26T22:58:59.324Z,81.30
2018-04-26T23:01:26.957Z,81.40
2018-04-26T23:03:54.618Z,81.30
2018-04-26T23:06:22.168Z,81.30
2018-04-26T23:08:49.735Z,81.60
2018-04-26T23:11:17.364Z,81.70
2018-04-26T23:13:44.999Z,81.60
2018-04-26T23:16:12.968Z,81.90
2018-04-26T23:18:40.540Z,81.90
2018-04-26T23:21:08.155Z,81.90
2018-04-26T23:23:36.391Z,82.10
2018-04-26T23:26:04.141Z,82.30
2018-04-26T23:28:32.513Z,82.40
2018-04-26T23:31:00.111Z,82.70
2018-04-26T23:33:27.700Z,83.00
2018-04-26T23:35:55.306Z,83.50
2018-04-26T23:38:22.979Z,83.40
2018-04-26T23:40:50.538Z,83.20
2018-04-26T23:43:18.140Z,83.70
2018-04-26T23:45:45.792Z,83.90
2018-04-26T23:48:13.864Z,84.00
2018-04-26T23:50:42.664Z,84.00
2018-04-26T23:53:10.245Z,83.90
2018-04-26T23:55:37.882Z,84.00
2018-04-26T23:58:05.594Z,83.90
